createdAt,value
2018-05-06T00:01:15.946Z,1018.58
2018-05-06T00:06:11.828Z,1018.51
2018-05-06T00:11:11.991Z,1018.53
2018-05-06T00:16:07.907Z,1018.52
2018-05-06T00:21:03.659Z,1018.61
2018-05-06T00:25:59.404Z,1018.50
2018-05-06T00:30:56.094Z,1018.53
2018-05-06T00:35:56.502Z,1018.65
2018-05-06T00:40:51.221Z,1018.53
2018-05-06T00:45:47.017Z,1018.49
2018-05-06T00:50:47.664Z,1018.51
2018-05-06T00:55:46.287Z,1018.47
2018-05-06T01:00:41.430Z,1018.42
2018-05-06T01:05:37.093Z,1018.45
2018-05-06T01:10:32.932Z,1018.47
2018-05-06T01:15:32.699Z,1018.52
2018-05-06T01:20:27.585Z,1018.55
2018-05-06T01:25:23.465Z,1018.52
2018-05-06T01:30:19.353Z,1018.51
2018-05-06T01:35:16.085Z,1018.39
2018-05-06T01:40:11.556Z,1018.47
2018-05-06T01:45:07.310Z,1018.36
2018-05-06T01:50:08.406Z,1018.38
2018-05-06T01:55:03.168Z,1018.29
2018-05-06T01:59:59.815Z,1018.33
2018-05-06T02:04:56.574Z,1018.37
2018-05-06T02:09:51.928Z,1018.44
2018-05-06T02:14:48.675Z,1018.41
2018-05-06T02:19:45.083Z,1018.40
2018-05-06T02:24:40.311Z,1018.33
2018-05-06T02:29:39.700Z,1018.38
2018-05-06T02:34:34.489Z,1018.39
2018-05-06T02:39:31.147Z,1018.32
2018-05-06T02:44:27.558Z,1018.29
2018-05-06T02:49:23.199Z,1018.36
2018-05-06T02:54:22.825Z,1018.39
2018-05-06T02:59:17.557Z,1018.42
2018-05-06T03:04:13.252Z,1018.46
2018-05-06T03:09:09.064Z,1018.33
2018-05-06T03:14:05.837Z,1018.30
2018-05-06T03:19:01.339Z,1018.35
2018-05-06T03:24:00.963Z,1018.27
2018-05-06T03:28:55.723Z,1018.26
2018-05-06T03:33:51.379Z,1018.22
2018-05-06T03:38:47.045Z,1018.25
2018-05-06T03:43:47.725Z,1018.09
2018-05-06T03:48:46.237Z,1018.19
2018-05-06T03:53:42.634Z,1018.10
2018-05-06T03:58:38.371Z,1018.09
2018-05-06T04:03:38.042Z,1018.05
2018-05-06T04:08:33.044Z,1018.02
2018-05-06T04:13:29.050Z,1018.05
2018-05-06T04:18:28.562Z,1018.05
2018-05-06T04:23:23.462Z,1018.10
2018-05-06T04:28:19.965Z,1018.17
2018-05-06T04:33:15.522Z,1018.19
2018-05-06T04:38:11.942Z,1018.22
2018-05-06T04:43:09.088Z,1018.24
2018-05-06T04:48:04.923Z,1018.14
2018-05-06T04:53:04.655Z,1018.23
2018-05-06T04:57:59.716Z,1018.26
2018-05-06T05:02:55.847Z,1018.31
2018-05-06T05:07:56.596Z,1018.29
2018-05-06T05:12:55.310Z,1018.40
2018-05-06T05:17:55.263Z,1018.47
2018-05-06T05:22:53.901Z,1018.47
2018-05-06T05:27:48.884Z,1018.46
2018-05-06T05:32:44.643Z,1018.44
2018-05-06T05:37:40.379Z,1018.50
2018-05-06T05:42:36.807Z,1018.55
2018-05-06T05:47:33.712Z,1018.65
2018-05-06T05:52:32.976Z,1018.64
2018-05-06T05:57:32.342Z,1018.82
2018-05-06T06:02:31.203Z,1018.76
2018-05-06T06:07:30.178Z,1018.74
2018-05-06T06:12:26.024Z,1018.75
2018-05-06T06:17:26.133Z,1018.87
2018-05-06T06:22:21.103Z,1018.89
2018-05-06T06:27:21.607Z,1018.83
2018-05-06T06:32:16.802Z,1018.96
2018-05-06T06:37:13.568Z,1018.93
2018-05-06T06:42:14.395Z,1018.94
2018-05-06T06:47:09.588Z,1018.80
2018-05-06T06:52:05.275Z,1018.80
2018-05-06T06:57:04.818Z,1018.81
2018-05-06T07:01:59.673Z,1018.85
2018-05-06T07:06:56.098Z,1018.83
2018-05-06T07:11:56.390Z,1018.91
2018-05-06T07:16:52.568Z,1018.86
2018-05-06T07:21:48.816Z,1018.89
2018-05-06T07:26:48.610Z,1018.92
2018-05-06T07:31:47.687Z,1018.99
2018-05-06T07:36:42.757Z,1019.04
2018-05-06T07:41:39.630Z,1019.09
2018-05-06T07:46:41.743Z,1019.24
2018-05-06T07:51:40.135Z,1019.20
2018-05-06T07:56:38.294Z,1019.08
2018-05-06T08:01:37.124Z,1019.04
2018-05-06T08:06:34.514Z,1019.15
2018-05-06T08:11:31.664Z,1019.18
2018-05-06T08:16:28.595Z,1019.29
2018-05-06T08:21:24.541Z,1019.32
2018-05-06T08:26:24.996Z,1019.32
2018-05-06T08:31:20.158Z,1019.71
2018-05-06T08:36:21.014Z,1019.54
2018-05-06T08:41:18.323Z,1019.27
2018-05-06T08:46:12.638Z,1019.20
2018-05-06T08:51:11.096Z,1018.97
2018-05-06T08:56:05.867Z,1018.95
2018-05-06T09:01:01.068Z,1018.82
2018-05-06T09:06:00.770Z,1018.80
2018-05-06T09:10:58.498Z,1018.91
2018-05-06T09:15:53.883Z,1018.96
2018-05-06T09:20:52.203Z,1019.21
2018-05-06T09:25:50.669Z,1019.11
2018-05-06T09:30:47.996Z,1018.96
2018-05-06T09:35:49.244Z,1018.97
2018-05-06T09:40:45.157Z,1018.94
2018-05-06T09:45:41.490Z,1018.88
2018-05-06T09:50:38.029Z,1018.99
2018-05-06T09:55:38.306Z,1018.83
2018-05-06T10:00:33.773Z,1018.91
2018-05-06T10:05:30.280Z,1018.91
2018-05-06T10:10:30.333Z,1018.86
2018-05-06T10:15:29.855Z,1018.80
2018-05-06T10:20:25.321Z,1018.88
2018-05-06T10:25:21.368Z,1018.83
2018-05-06T10:30:17.853Z,1018.70
2018-05-06T10:35:14.244Z,1018.70
2018-05-06T10:40:10.820Z,1018.58
2018-05-06T10:45:11.421Z,1018.43
2018-05-06T10:50:06.677Z,1018.37
2018-05-06T10:55:03.583Z,1018.33
2018-05-06T11:00:04.123Z,1018.23
2018-05-06T11:05:00.066Z,1018.09
2018-05-06T11:09:56.480Z,1018.00
2018-05-06T11:14:52.753Z,1018.04
2018-05-06T11:19:49.276Z,1017.96
2018-05-06T11:24:45.850Z,1018.03
2018-05-06T11:29:46.030Z,1017.94
2018-05-06T11:34:41.376Z,1017.89
2018-05-06T11:39:37.594Z,1017.77
2018-05-06T11:44:35.288Z,1017.85
2018-05-06T11:49:32.228Z,1017.78
2018-05-06T11:54:31.655Z,1017.80
2018-05-06T11:59:27.759Z,1017.73
2018-05-06T12:04:23.237Z,1017.70
2018-05-06T12:09:20.491Z,1017.71
2018-05-06T12:14:16.437Z,1017.55
2018-05-06T12:19:12.775Z,1017.57
2018-05-06T12:24:09.740Z,1017.58
2018-05-06T12:29:09.403Z,1017.39
2018-05-06T12:34:04.174Z,1017.41
2018-05-06T12:38:59.876Z,1017.40
2018-05-06T12:43:52.642Z,1017.32
2018-05-06T12:48:47.067Z,1017.22
2018-05-06T12:53:42.513Z,1017.22
2018-05-06T12:58:39.944Z,1017.16
2018-05-06T13:03:42.168Z,1017.05
2018-05-06T13:08:41.489Z,1016.97
2018-05-06T13:13:40.850Z,1017.01
2018-05-06T13:18:36.022Z,1016.94
2018-05-06T13:23:32.041Z,1016.80
2018-05-06T13:28:28.778Z,1016.91
2018-05-06T13:33:24.795Z,1016.79
2018-05-06T13:38:23.468Z,1016.70
2018-05-06T13:43:17.299Z,1016.61
2018-05-06T13:48:13.099Z,1016.54
2018-05-06T13:53:07.495Z,1016.59
2018-05-06T13:58:04.345Z,1016.45
2018-05-06T14:03:03.426Z,1016.44
2018-05-06T14:07:59.155Z,1016.39
2018-05-06T14:12:54.580Z,1016.33
2018-05-06T14:17:50.933Z,1016.44
2018-05-06T14:22:47.090Z,1016.35
2018-05-06T14:27:43.082Z,1016.36
2018-05-06T14:32:38.896Z,1016.27
2018-05-06T14:37:36.364Z,1016.27
2018-05-06T14:42:32.080Z,1016.16
2018-05-06T14:47:31.698Z,1016.15
2018-05-06T14:52:27.915Z,1016.13
2018-05-06T14:57:23.854Z,1016.02
2018-05-06T15:02:19.643Z,1015.96
2018-05-06T15:07:19.544Z,1016.03
2018-05-06T15:12:14.488Z,1015.93
2018-05-06T15:17:10.381Z,1015.99
2018-05-06T15:22:06.489Z,1015.83
2018-05-06T15:27:02.715Z,1015.86
2018-05-06T15:31:59.869Z,1015.83
2018-05-06T15:36:55.592Z,1015.73
2018-05-06T15:41:52.144Z,1015.80
2018-05-06T15:46:52.016Z,1015.61
2018-05-06T15:51:51.961Z,1015.69
2018-05-06T15:56:46.712Z,1015.69
2018-05-06T16:01:42.493Z,1015.62
2018-05-06T16:06:38.506Z,1015.58
2018-05-06T16:11:34.470Z,1015.58
2018-05-06T16:16:34.795Z,1015.56
2018-05-06T16:21:30.072Z,1015.46
2018-05-06T16:26:30.930Z,1015.44
2018-05-06T16:31:25.665Z,1015.41
2018-05-06T16:36:21.593Z,1015.41
2018-05-06T16:41:17.447Z,1015.38
2018-05-06T16:46:14.377Z,1015.32
2018-05-06T16:51:10.047Z,1015.37
2018-05-06T16:56:06.036Z,1015.38
2018-05-06T17:01:02.928Z,1015.37
2018-05-06T17:05:58.593Z,1015.30
2018-05-06T17:10:54.600Z,1015.34
2018-05-06T17:15:50.423Z,1015.25
2018-05-06T17:20:47.242Z,1015.30
2018-05-06T17:25:42.953Z,1015.32
2018-05-06T17:30:38.954Z,1015.36
2018-05-06T17:35:34.964Z,1015.30
2018-05-06T17:40:30.968Z,1015.38
2018-05-06T17:45:30.625Z,1015.34
2018-05-06T17:50:26.617Z,1015.36
2018-05-06T17:55:21.973Z,1015.43
2018-05-06T18:00:19.099Z,1015.31
2018-05-06T18:05:18.432Z,1015.35
2018-05-06T18:10:14.301Z,1015.36
2018-05-06T18:15:09.986Z,1015.38
2018-05-06T18:20:07.097Z,1015.39
2018-05-06T18:25:03.501Z,1015.49
2018-05-06T18:30:02.955Z,1015.40
2018-05-06T18:34:57.803Z,1015.43
2018-05-06T18:39:53.494Z,1015.38
2018-05-06T18:44:49.344Z,1015.45
2018-05-06T18:49:45.145Z,1015.48
2018-05-06T18:54:42.038Z,1015.48
2018-05-06T18:59:41.380Z,1015.53
2018-05-06T19:04:40.177Z,1015.52
2018-05-06T19:09:34.879Z,1015.60
2018-05-06T19:14:30.726Z,1015.57
2018-05-06T19:19:26.567Z,1015.63
2018-05-06T19:24:26.975Z,1015.66
2018-05-06T19:29:26.544Z,1015.77
2018-05-06T19:34:22.294Z,1015.72
2018-05-06T19:39:17.690Z,1015.79
2018-05-06T19:44:13.350Z,1015.85
2018-05-06T19:49:09.665Z,1015.78
2018-05-06T19:54:10.409Z,1015.76
2018-05-06T19:59:09.190Z,1015.90
2018-05-06T20:04:04.021Z,1015.80
2018-05-06T20:09:03.554Z,1015.83
2018-05-06T20:13:58.532Z,1015.80
2018-05-06T20:18:58.557Z,1015.83
2018-05-06T20:23:54.471Z,1015.84
2018-05-06T20:28:50.585Z,1015.81
2018-05-06T20:33:46.533Z,1015.83
2018-05-06T20:38:42.180Z,1015.87
2018-05-06T20:43:39.127Z,1015.80
2018-05-06T20:48:34.498Z,1015.77
2018-05-06T20:53:34.361Z,1015.81
2018-05-06T20:58:29.051Z,1015.86
2018-05-06T21:03:28.899Z,1015.82
2018-05-06T21:08:23.933Z,1015.75
2018-05-06T21:13:19.903Z,1015.82
2018-05-06T21:18:16.226Z,1015.83
2018-05-06T21:23:15.483Z,1015.85
2018-05-06T21:28:14.302Z,1015.88
2018-05-06T21:33:09.394Z,1015.80
2018-05-06T21:38:06.267Z,1015.78
2018-05-06T21:43:02.737Z,1015.73
2018-05-06T21:47:59.303Z,1015.77
2018-05-06T21:52:55.241Z,1015.77
2018-05-06T21:57:55.935Z,1015.82
2018-05-06T22:02:50.631Z,1015.90
2018-05-06T22:07:46.479Z,1015.82
2018-05-06T22:12:42.730Z,1015.79
2018-05-06T22:17:38.394Z,1015.87
2018-05-06T22:22:38.785Z,1015.82
2018-05-06T22:27:34.431Z,1015.75
2018-05-06T22:32:31.258Z,1015.74
2018-05-06T22:37:30.739Z,1015.69
2018-05-06T22:42:25.653Z,1015.74
2018-05-06T22:47:25.341Z,1015.71
2018-05-06T22:52:24.385Z,1015.76
2018-05-06T22:57:23.262Z,1015.76
2018-05-06T23:02:18.683Z,1015.70
2018-05-06T23:07:14.569Z,1015.71
2018-05-06T23:12:11.301Z,1015.81
2018-05-06T23:17:10.837Z,1015.83
2018-05-06T23:22:09.955Z,1015.78
2018-05-06T23:27:04.759Z,1015.77
2018-05-06T23:32:01.941Z,1015.64
2018-05-06T23:36:58.326Z,1015.76
2018-05-06T23:41:54.152Z,1015.78
2018-05-06T23:46:50.188Z,1015.78
2018-05-06T23:51:45.904Z,1015.80
2018-05-06T23:56:42.138Z,1015.70
